»·PEaware :: UAL236 ESSA-CYUL

UAL236 :: ESSA-CYUL

FLIGHT INFORMATION

Flight Status: Arrived
Operator:
United Airlines
More flights by this operator :: More flights under this callsign
Pilot: Kenny J. (11300)
Aircraft: Unknown
(B77L)
More flights by this aircraft type
Origin: ESSA Arlanda
Sweden
Destination: CYUL Montréal-Trudeau
Canada
More flights between these airports :: More routes between these airports
Route: KOGA2L KOGAV L77 BOR M996 SUVAR Z262 UMBOR DCT 64N000E 65N010W 65N020W 65N030W 64N040W 62N050W DCT SAVRY DCT MOATT DCT YDP N704A YBC J563 YRI V316 MIVAX Q812 PENTU OMBRE4
File this flight plan on PilotEdge
Remarks:
Altitude:
(Current/Filed)
36,000ft
Speed:
(Current/Filed)
310kts
Departed: 20-Sep-16 07:49 PM
Arrived: 21-Sep-16 04:15 AM
Distance/Time
Traveled:
3167nm/8:26
Distance/Time
To Go:
Arrived

Flight Plot

Page will automatically refresh every two minutes.

Flight plan parsing failed; only flown route is shown


Map Options




Map Legend


Flown Route
Filed Route
Departure Airport
Arrival Airport
Navaid (VOR, NDB)
Fix

Horizontal Profiles

Position Reports

Time Latitude Longitude Heading Altitude Ground
Speed
20-Sep-16 19:32 59.653298 17.929064 101 150ft 0kts
20-Sep-16 19:33 59.653298 17.929064 101 150ft 0kts
20-Sep-16 19:34 59.653298 17.929064 101 150ft 0kts
20-Sep-16 19:35 59.653298 17.929064 101 150ft 0kts
20-Sep-16 19:36 59.653298 17.929064 101 150ft 0kts
20-Sep-16 19:37 59.653298 17.929064 101 150ft 0kts
20-Sep-16 19:38 59.653298 17.929064 101 150ft 0kts
20-Sep-16 19:39 59.653298 17.929064 101 150ft 0kts
20-Sep-16 19:40 59.653298 17.929064 101 150ft 0kts
20-Sep-16 19:41 59.653298 17.929065 101 150ft 0kts
20-Sep-16 19:42 59.653206 17.927986 41 150ft 2kts
20-Sep-16 19:43 59.653010 17.927787 11 150ft 0kts
20-Sep-16 19:44 59.656393 17.933339 50 150ft 26kts
20-Sep-16 19:45 59.658833 17.939775 78 150ft 30kts
20-Sep-16 19:46 59.668260 18.011858 76 1736ft 178kts
20-Sep-16 19:47 59.709545 18.068399 4 4210ft 212kts
20-Sep-16 19:48 59.770290 18.023805 318 6553ft 261kts
20-Sep-16 19:49 59.818445 17.908560 310 9795ft 276kts
20-Sep-16 19:50 59.869048 17.777556 311 12261ft 332kts
20-Sep-16 19:51 59.931043 17.621578 311 14762ft 387kts
20-Sep-16 19:52 59.998675 17.445677 310 18120ft 408kts
20-Sep-16 19:53 60.068477 17.259270 304 21256ft 427kts
20-Sep-16 19:54 60.120256 17.039766 295 24128ft 447kts
20-Sep-16 19:55 60.167528 16.804508 294 26831ft 461kts
20-Sep-16 19:56 60.215651 16.563737 295 29277ft 473kts
20-Sep-16 19:57 60.266219 16.317182 294 31604ft 477kts
20-Sep-16 19:58 60.315695 16.068805 295 33841ft 473kts
20-Sep-16 19:59 60.363743 15.822821 293 35749ft 470kts
20-Sep-16 20:00 60.410628 15.576466 293 36289ft 466kts
20-Sep-16 20:01 60.468126 15.343560 301 36289ft 464kts
20-Sep-16 20:02 60.531504 15.115829 299 36289ft 464kts
20-Sep-16 20:03 60.593781 14.885386 300 36289ft 464kts
20-Sep-16 20:04 60.657251 14.655526 298 36289ft 464kts
20-Sep-16 20:05 60.718397 14.422750 298 36290ft 465kts
20-Sep-16 20:06 60.778895 14.191510 298 36289ft 464kts
20-Sep-16 20:07 60.838806 13.958637 298 36289ft 464kts
20-Sep-16 20:08 60.898941 13.722414 297 36283ft 464kts
20-Sep-16 20:09 60.960222 13.486931 297 36279ft 464kts
20-Sep-16 20:10 61.020159 13.251624 297 36278ft 464kts
20-Sep-16 20:11 61.078760 13.016727 296 36272ft 464kts
20-Sep-16 20:12 61.127409 12.817694 295 36254ft 463kts
20-Sep-16 20:13 61.189329 12.583679 300 36245ft 464kts
20-Sep-16 20:14 61.257160 12.354798 299 36238ft 464kts
20-Sep-16 20:15 61.323310 12.123889 298 36226ft 463kts
20-Sep-16 20:16 61.390084 11.896023 298 36216ft 464kts
20-Sep-16 20:17 61.456482 11.663061 298 36207ft 464kts
20-Sep-16 20:18 61.521775 11.430625 298 36202ft 464kts
20-Sep-16 20:19 61.586907 11.196265 297 36196ft 464kts
20-Sep-16 20:20 61.651483 10.961475 297 36200ft 464kts
20-Sep-16 20:21 61.715371 10.726756 296 36203ft 464kts
20-Sep-16 20:22 61.779262 10.489551 296 36211ft 464kts
20-Sep-16 20:23 61.842789 10.251230 296 36219ft 464kts
20-Sep-16 20:24 61.906462 10.012800 295 36226ft 463kts
20-Sep-16 20:25 61.968558 9.772274 295 36231ft 463kts
20-Sep-16 20:26 62.029736 9.534165 294 36221ft 464kts
20-Sep-16 20:27 62.090892 9.291388 294 36214ft 463kts
20-Sep-16 20:28 62.151402 9.047584 293 36219ft 463kts
20-Sep-16 20:29 62.213376 8.804638 294 36222ft 464kts
20-Sep-16 20:30 62.274356 8.559820 293 36225ft 464kts
20-Sep-16 20:31 62.334016 8.315756 293 36227ft 464kts
20-Sep-16 20:32 62.393722 8.068520 292 36228ft 464kts
20-Sep-16 20:33 62.452796 7.821082 292 36229ft 464kts
20-Sep-16 20:34 62.511595 7.571956 292 36229ft 464kts
20-Sep-16 20:35 62.569953 7.321828 292 36229ft 464kts
20-Sep-16 20:36 62.627321 7.073085 291 36229ft 464kts
20-Sep-16 20:37 62.684872 6.820628 291 36230ft 465kts
20-Sep-16 20:38 62.741823 6.567831 291 36230ft 465kts
20-Sep-16 20:39 62.798729 6.312207 291 36230ft 466kts
20-Sep-16 20:40 62.854999 6.056383 290 36230ft 465kts
20-Sep-16 20:41 62.910237 5.802196 290 36230ft 466kts
20-Sep-16 20:42 62.965661 5.544041 290 36230ft 466kts
20-Sep-16 20:43 63.020381 5.286012 290 36229ft 466kts
20-Sep-16 20:44 63.074630 5.027014 290 36230ft 466kts
20-Sep-16 20:45 63.129526 4.766192 290 36227ft 465kts
20-Sep-16 20:46 63.181896 4.507670 289 36225ft 465kts
20-Sep-16 20:47 63.234628 4.244003 289 36224ft 465kts
20-Sep-16 20:48 63.286600 3.980271 288 36224ft 464kts
20-Sep-16 20:49 63.337512 3.716339 288 36214ft 465kts
20-Sep-16 20:50 63.388466 3.451972 290 36214ft 465kts
20-Sep-16 20:51 63.440417 3.188449 288 36209ft 465kts
20-Sep-16 20:52 63.491000 2.921520 288 36208ft 465kts
20-Sep-16 20:53 63.540764 2.654596 288 36208ft 465kts
20-Sep-16 20:54 63.590018 2.386729 287 36209ft 464kts
20-Sep-16 20:55 63.638980 2.116766 287 36187ft 464kts
20-Sep-16 20:56 63.686799 1.849452 287 36187ft 463kts
20-Sep-16 20:57 63.734586 1.578586 286 36180ft 464kts
20-Sep-16 20:58 63.781766 1.307376 286 36180ft 464kts
20-Sep-16 20:59 63.828460 1.035130 286 36180ft 465kts
20-Sep-16 21:00 63.874958 0.760094 286 36180ft 464kts
20-Sep-16 21:01 63.921284 0.488693 285 36179ft 464kts
20-Sep-16 21:02 63.965807 0.212840 284 36178ft 463kts
20-Sep-16 21:03 64.009645 -0.063610 282 36175ft 461kts
20-Sep-16 21:04 64.046992 -0.345227 280 36174ft 463kts
20-Sep-16 21:05 64.083599 -0.627970 280 36171ft 463kts
20-Sep-16 21:06 64.120868 -0.905771 281 36167ft 464kts
20-Sep-16 21:07 64.159099 -1.190564 280 36164ft 463kts
20-Sep-16 21:08 64.195501 -1.474055 280 36147ft 464kts
20-Sep-16 21:09 64.225295 -1.710731 279 36143ft 463kts
20-Sep-16 21:10 64.266451 -2.043854 279 36136ft 463kts
20-Sep-16 21:11 64.295194 -2.280864 279 36130ft 463kts
20-Sep-16 21:12 64.329276 -2.566729 279 36067ft 463kts
20-Sep-16 21:13 64.362830 -2.853575 278 36054ft 463kts
20-Sep-16 21:14 64.396046 -3.143073 278 36044ft 464kts
20-Sep-16 21:15 64.428548 -3.432000 278 36034ft 465kts
20-Sep-16 21:16 64.460456 -3.721368 277 36024ft 466kts
20-Sep-16 21:17 64.491919 -4.012568 277 36013ft 466kts
20-Sep-16 21:18 64.522909 -4.305414 277 36008ft 466kts
20-Sep-16 21:19 64.553144 -4.597233 276 35999ft 465kts
20-Sep-16 21:20 64.582994 -4.891642 276 35990ft 464kts
20-Sep-16 21:21 64.611844 -5.182471 275 35981ft 465kts
20-Sep-16 21:22 64.640225 -5.474986 275 35973ft 464kts
20-Sep-16 21:23 64.668343 -5.771505 275 35964ft 465kts
20-Sep-16 21:24 64.695744 -6.067223 274 35956ft 465kts
20-Sep-16 21:25 64.722590 -6.364037 274 35943ft 465kts
20-Sep-16 21:26 64.748626 -6.658923 274 35922ft 464kts
20-Sep-16 21:27 64.774075 -6.954341 273 35915ft 465kts
20-Sep-16 21:28 64.799102 -7.252339 273 35907ft 465kts
20-Sep-16 21:29 64.823571 -7.551390 272 35904ft 465kts
20-Sep-16 21:30 64.847408 -7.850572 272 35896ft 464kts
20-Sep-16 21:31 64.870413 -8.147228 272 35888ft 466kts
20-Sep-16 21:32 64.893116 -8.448342 271 35880ft 466kts
20-Sep-16 21:33 64.915115 -8.748570 271 35865ft 465kts
20-Sep-16 21:34 64.936607 -9.050694 270 35828ft 465kts
20-Sep-16 21:35 64.958207 -9.351346 271 35819ft 465kts
20-Sep-16 21:36 64.978020 -9.650574 269 35813ft 463kts
20-Sep-16 21:37 64.997018 -9.952358 269 35805ft 463kts
20-Sep-16 21:38 65.009112 -10.253606 264 35798ft 458kts
20-Sep-16 21:39 65.016229 -10.555726 264 35791ft 460kts
20-Sep-16 21:40 65.023642 -10.857432 265 35785ft 461kts
20-Sep-16 21:41 65.033721 -11.157652 265 35780ft 460kts
20-Sep-16 21:42 65.041570 -11.460760 264 35775ft 460kts
20-Sep-16 21:43 65.048482 -11.763802 264 35770ft 459kts
20-Sep-16 21:44 65.054712 -12.065600 263 35767ft 459kts
20-Sep-16 21:45 65.060361 -12.369573 263 35763ft 459kts
20-Sep-16 21:46 65.065317 -12.668834 262 35761ft 459kts
20-Sep-16 21:47 65.069736 -12.972579 262 35759ft 460kts
20-Sep-16 21:48 65.073526 -13.275204 262 35758ft 460kts
20-Sep-16 21:49 65.076713 -13.579056 262 35758ft 460kts
20-Sep-16 21:50 65.079283 -13.882592 261 35757ft 459kts
20-Sep-16 21:51 65.081222 -14.183318 261 35757ft 460kts
20-Sep-16 21:52 65.082568 -14.486586 261 35756ft 460kts
20-Sep-16 21:53 65.083303 -14.792231 261 35756ft 462kts
20-Sep-16 21:54 65.083416 -15.096278 261 35754ft 462kts
20-Sep-16 21:55 65.082911 -15.400959 260 35751ft 462kts
20-Sep-16 21:56 65.081797 -15.703492 260 35747ft 462kts
20-Sep-16 21:57 65.080058 -16.008408 260 35742ft 461kts
20-Sep-16 21:58 65.077692 -16.313814 260 35737ft 463kts
20-Sep-16 21:59 65.074698 -16.619993 260 35732ft 464kts
20-Sep-16 22:00 65.071088 -16.925235 260 35728ft 464kts
20-Sep-16 22:01 65.066881 -17.228775 260 35726ft 465kts
20-Sep-16 22:02 65.061995 -17.536146 260 35724ft 466kts
20-Sep-16 22:03 65.056476 -17.843550 260 35722ft 466kts
20-Sep-16 22:04 65.050315 -18.151182 260 35714ft 468kts
20-Sep-16 22:05 65.043563 -18.457340 260 35710ft 468kts
20-Sep-16 22:06 65.036178 -18.763546 259 35707ft 469kts
20-Sep-16 22:07 65.028065 -19.073415 259 35703ft 469kts
20-Sep-16 22:08 65.020410 -19.381943 260 35697ft 470kts
20-Sep-16 22:09 65.010462 -19.692074 259 35691ft 470kts
20-Sep-16 22:10 65.000667 -19.997507 262 35684ft 474kts
20-Sep-16 22:11 65.008179 -20.312180 269 35678ft 481kts
20-Sep-16 22:12 65.017669 -20.626804 268 35671ft 480kts
20-Sep-16 22:13 65.026653 -20.943395 270 35669ft 482kts
20-Sep-16 22:14 65.035118 -21.207757 268 35668ft 482kts
20-Sep-16 22:15 65.044220 -21.573547 268 35667ft 482kts
20-Sep-16 22:16 65.050075 -21.838491 268 35666ft 482kts
20-Sep-16 22:17 65.056461 -22.157137 268 35723ft 487kts
20-Sep-16 22:18 65.062219 -22.477830 268 37497ft 483kts
20-Sep-16 22:19 65.067238 -22.796220 268 37607ft 483kts
20-Sep-16 22:20 65.071590 -23.115251 267 37601ft 483kts
20-Sep-16 22:21 65.075221 -23.430365 267 37608ft 484kts
20-Sep-16 22:22 65.078228 -23.749970 267 37595ft 484kts
20-Sep-16 22:23 65.080542 -24.068821 267 37595ft 484kts
20-Sep-16 22:24 65.082195 -24.389647 267 37597ft 485kts
20-Sep-16 22:25 65.083156 -24.709491 267 37599ft 485kts
20-Sep-16 22:26 65.083436 -25.027414 267 37603ft 486kts
20-Sep-16 22:27 65.083039 -25.346231 267 37606ft 486kts
20-Sep-16 22:28 65.081949 -25.668626 267 37611ft 486kts
20-Sep-16 22:29 65.080180 -25.989066 266 37616ft 486kts
20-Sep-16 22:30 65.077721 -26.309592 266 37622ft 487kts
20-Sep-16 22:31 65.074587 -26.629532 266 37628ft 487kts
20-Sep-16 22:32 65.070762 -26.950009 266 37635ft 487kts
20-Sep-16 22:33 65.066536 -27.251556 266 37642ft 487kts
20-Sep-16 22:34 65.061305 -27.576276 266 37650ft 487kts
20-Sep-16 22:35 65.055429 -27.897918 266 37660ft 487kts
20-Sep-16 22:36 65.048973 -28.214280 266 37670ft 487kts
20-Sep-16 22:37 65.041706 -28.536633 265 37680ft 487kts
20-Sep-16 22:38 65.033784 -28.857462 265 37692ft 487kts
20-Sep-16 22:39 65.025202 -29.177185 265 37705ft 487kts
20-Sep-16 22:40 65.016992 -29.498994 265 37718ft 487kts
20-Sep-16 22:41 65.006252 -29.815822 265 37733ft 487kts
20-Sep-16 22:42 64.993057 -30.133891 261 37747ft 486kts
20-Sep-16 22:43 64.970102 -30.448537 260 37762ft 487kts
20-Sep-16 22:44 64.946916 -30.765111 260 37778ft 487kts
20-Sep-16 22:45 64.926517 -31.081505 261 37794ft 486kts
20-Sep-16 22:46 64.904595 -31.393847 260 37810ft 486kts
20-Sep-16 22:47 64.881467 -31.706008 260 37826ft 486kts
20-Sep-16 22:48 64.857549 -32.018626 260 37841ft 486kts
20-Sep-16 22:49 64.832702 -32.334003 260 37856ft 486kts
20-Sep-16 22:50 64.807844 -32.640821 259 37870ft 486kts
20-Sep-16 22:51 64.781795 -32.953663 259 37884ft 487kts
20-Sep-16 22:52 64.755048 -33.266402 259 37897ft 487kts
20-Sep-16 22:53 64.727906 -33.575538 259 37908ft 487kts
20-Sep-16 22:54 64.699939 -33.886066 259 37919ft 487kts
20-Sep-16 22:55 64.671602 -34.192939 259 37929ft 487kts
20-Sep-16 22:56 64.642241 -34.503262 258 37937ft 487kts
20-Sep-16 22:57 64.612428 -34.810892 258 37944ft 487kts
20-Sep-16 22:58 64.581731 -35.120287 258 37950ft 487kts
20-Sep-16 22:59 64.550621 -35.426709 258 37955ft 487kts
20-Sep-16 23:00 64.519213 -35.729213 258 37964ft 487kts
20-Sep-16 23:01 64.486737 -36.035216 258 37966ft 487kts
20-Sep-16 23:02 64.453623 -36.340527 258 37968ft 487kts
20-Sep-16 23:03 64.419966 -36.644303 257 37970ft 487kts
20-Sep-16 23:04 64.385551 -36.948484 257 37970ft 488kts
20-Sep-16 23:05 64.350846 -37.248998 257 37997ft 488kts
20-Sep-16 23:06 64.315275 -37.550890 257 37999ft 489kts
20-Sep-16 23:07 64.278888 -37.853619 257 38000ft 489kts
20-Sep-16 23:08 64.241865 -38.155647 256 38001ft 489kts
20-Sep-16 23:09 64.204217 -38.456897 256 38002ft 489kts
20-Sep-16 23:10 64.166470 -38.753284 256 38003ft 489kts
20-Sep-16 23:11 64.127498 -39.053680 256 38004ft 488kts
20-Sep-16 23:12 64.088599 -39.350978 257 38005ft 488kts
20-Sep-16 23:13 64.048898 -39.648284 255 38007ft 488kts
20-Sep-16 23:14 64.007712 -39.944539 255 38008ft 489kts
20-Sep-16 23:15 63.963603 -40.235345 253 38009ft 490kts
20-Sep-16 23:16 63.916642 -40.526018 253 38011ft 490kts
20-Sep-16 23:17 63.869648 -40.817462 254 38012ft 489kts
20-Sep-16 23:18 63.824461 -41.108329 254 38013ft 490kts
20-Sep-16 23:19 63.777118 -41.398282 253 38014ft 490kts
20-Sep-16 23:20 63.729419 -41.684709 253 38015ft 490kts
20-Sep-16 23:21 63.681753 -41.966484 253 38015ft 491kts
20-Sep-16 23:22 63.632608 -42.252687 253 38016ft 491kts
20-Sep-16 23:23 63.582693 -42.539053 253 38017ft 491kts
20-Sep-16 23:24 63.532351 -42.823593 253 38017ft 491kts
20-Sep-16 23:25 63.489788 -43.060969 253 38017ft 491kts
20-Sep-16 23:26 63.430187 -43.388573 253 38017ft 491kts
20-Sep-16 23:27 63.386881 -43.623232 253 38016ft 491kts
20-Sep-16 23:28 63.334195 -43.905018 252 38016ft 492kts
20-Sep-16 23:29 63.281118 -44.184904 252 37990ft 491kts
20-Sep-16 23:30 63.227614 -44.463151 252 37987ft 491kts
20-Sep-16 23:31 63.173469 -44.740862 252 37987ft 490kts
20-Sep-16 23:32 63.118906 -45.016920 252 37987ft 491kts
20-Sep-16 23:33 63.063577 -45.293097 252 37987ft 490kts
20-Sep-16 23:34 63.008007 -45.566767 252 37983ft 490kts
20-Sep-16 23:35 62.953117 -45.833580 252 37983ft 490kts
20-Sep-16 23:36 62.895424 -46.110324 252 37983ft 489kts
20-Sep-16 23:37 62.838245 -46.381080 252 37983ft 489kts
20-Sep-16 23:38 62.780717 -46.649968 252 37983ft 488kts
20-Sep-16 23:39 62.722604 -46.918140 251 37982ft 487kts
20-Sep-16 23:40 62.664860 -47.181284 251 37982ft 486kts
20-Sep-16 23:41 62.606017 -47.446113 251 37982ft 485kts
20-Sep-16 23:42 62.546762 -47.709522 251 37981ft 484kts
20-Sep-16 23:43 62.487063 -47.971664 251 37981ft 484kts
20-Sep-16 23:44 62.427217 -48.231283 251 37980ft 483kts
20-Sep-16 23:45 62.367071 -48.489084 250 37979ft 483kts
20-Sep-16 23:46 62.306309 -48.746463 250 37979ft 483kts
20-Sep-16 23:47 62.245060 -49.002861 250 37978ft 483kts
20-Sep-16 23:48 62.183217 -49.258738 249 37977ft 482kts
20-Sep-16 23:49 62.121704 -49.514098 249 37976ft 482kts
20-Sep-16 23:50 62.059165 -49.764935 249 37975ft 482kts
20-Sep-16 23:51 61.995602 -50.017193 248 37974ft 483kts
20-Sep-16 23:52 61.928859 -50.265203 247 37974ft 484kts
20-Sep-16 23:53 61.861141 -50.512434 246 37973ft 483kts
20-Sep-16 23:54 61.794447 -50.758974 247 37972ft 480kts
20-Sep-16 23:55 61.728547 -51.002307 246 37988ft 480kts
20-Sep-16 23:56 61.661548 -51.243748 246 37988ft 479kts
20-Sep-16 23:57 61.593554 -51.485768 246 37988ft 479kts
20-Sep-16 23:58 61.525255 -51.726243 245 37977ft 479kts
20-Sep-16 23:59 61.456431 -51.966013 245 37955ft 480kts
21-Sep-16 00:00 61.387903 -52.202275 245 37953ft 478kts
21-Sep-16 00:01 61.318430 -52.439316 244 37925ft 478kts
21-Sep-16 00:02 61.248837 -52.674331 244 37919ft 477kts
21-Sep-16 00:03 61.178681 -52.908831 243 37899ft 477kts
21-Sep-16 00:04 61.108273 -53.141785 243 37896ft 476kts
21-Sep-16 00:05 61.038379 -53.370725 243 37894ft 475kts
21-Sep-16 00:06 60.967299 -53.601242 242 37892ft 475kts
21-Sep-16 00:07 60.895895 -53.830510 242 37890ft 475kts
21-Sep-16 00:08 60.824193 -54.058505 241 37887ft 474kts
21-Sep-16 00:09 60.752281 -54.284863 241 37885ft 473kts
21-Sep-16 00:10 60.680898 -54.507404 240 37883ft 473kts
21-Sep-16 00:11 60.608330 -54.731489 240 37881ft 473kts
21-Sep-16 00:12 60.535627 -54.953838 240 37878ft 472kts
21-Sep-16 00:13 60.462374 -55.175740 239 37876ft 472kts
21-Sep-16 00:14 60.388791 -55.396525 239 37874ft 472kts
21-Sep-16 00:15 60.315579 -55.614136 238 37871ft 471kts
21-Sep-16 00:16 60.241664 -55.831805 238 37869ft 471kts
21-Sep-16 00:17 60.167162 -56.049161 237 37767ft 471kts
21-Sep-16 00:18 60.092249 -56.265694 237 37754ft 471kts
21-Sep-16 00:19 60.017263 -56.480452 237 37743ft 471kts
21-Sep-16 00:20 59.942587 -56.692394 236 37737ft 471kts
21-Sep-16 00:21 59.866706 -56.905796 235 37710ft 471kts
21-Sep-16 00:22 59.790573 -57.117982 235 37687ft 470kts
21-Sep-16 00:23 59.714028 -57.329401 235 37682ft 470kts
21-Sep-16 00:24 59.637851 -57.539295 235 37677ft 470kts
21-Sep-16 00:25 59.561441 -57.746763 234 37673ft 470kts
21-Sep-16 00:26 59.484877 -57.951138 232 37668ft 470kts
21-Sep-16 00:27 59.385196 -58.117944 214 37666ft 472kts
21-Sep-16 00:28 59.277330 -58.263691 215 37663ft 471kts
21-Sep-16 00:29 59.170077 -58.410955 215 37659ft 469kts
21-Sep-16 00:30 59.064470 -58.557724 214 37657ft 470kts
21-Sep-16 00:31 58.957255 -58.703992 214 37655ft 469kts
21-Sep-16 00:32 58.850469 -58.848365 214 37653ft 468kts
21-Sep-16 00:33 58.743273 -58.992166 214 37651ft 468kts
21-Sep-16 00:34 58.636006 -59.134964 213 37650ft 468kts
21-Sep-16 00:35 58.547452 -59.252036 213 37648ft 467kts
21-Sep-16 00:36 58.422666 -59.415779 213 37647ft 467kts
21-Sep-16 00:37 58.333116 -59.532410 213 37643ft 466kts
21-Sep-16 00:38 58.207930 -59.695219 212 37640ft 466kts
21-Sep-16 00:39 58.118473 -59.809441 212 37639ft 466kts
21-Sep-16 00:40 58.012055 -59.944550 211 37637ft 465kts
21-Sep-16 00:41 57.903434 -60.077950 211 37636ft 465kts
21-Sep-16 00:42 57.794992 -60.210077 211 37636ft 465kts
21-Sep-16 00:43 57.686571 -60.342690 211 37635ft 464kts
21-Sep-16 00:44 57.578136 -60.474710 210 37634ft 464kts
21-Sep-16 00:45 57.470764 -60.603761 210 37633ft 464kts
21-Sep-16 00:46 57.361574 -60.733980 210 37632ft 464kts
21-Sep-16 00:47 57.253077 -60.862446 210 37631ft 463kts
21-Sep-16 00:48 57.144235 -60.990405 210 37630ft 462kts
21-Sep-16 00:49 57.035676 -61.117136 210 37634ft 463kts
21-Sep-16 00:50 56.927276 -61.242801 209 37635ft 463kts
21-Sep-16 00:51 56.818153 -61.368431 209 37642ft 462kts
21-Sep-16 00:52 56.709784 -61.493097 209 37652ft 462kts
21-Sep-16 00:53 56.600373 -61.616773 209 37658ft 462kts
21-Sep-16 00:54 56.490127 -61.739257 208 37659ft 462kts
21-Sep-16 00:55 56.380412 -61.855473 208 37660ft 462kts
21-Sep-16 00:56 56.269370 -61.972590 208 37660ft 461kts
21-Sep-16 00:57 56.158985 -62.090095 208 37661ft 461kts
21-Sep-16 00:58 56.047747 -62.207343 208 37663ft 461kts
21-Sep-16 00:59 55.937001 -62.322847 208 37665ft 461kts
21-Sep-16 01:00 55.826903 -62.436840 208 37668ft 461kts
21-Sep-16 01:01 55.715514 -62.551394 208 37671ft 462kts
21-Sep-16 01:02 55.604209 -62.665102 208 37677ft 462kts
21-Sep-16 01:03 55.492591 -62.778376 208 37680ft 462kts
21-Sep-16 01:04 55.380751 -62.891129 208 37685ft 463kts
21-Sep-16 01:05 55.270116 -63.001936 208 37689ft 462kts
21-Sep-16 01:06 55.157843 -63.113657 208 37693ft 463kts
21-Sep-16 01:07 55.045799 -63.224423 208 37698ft 463kts
21-Sep-16 01:08 54.933276 -63.334942 208 37701ft 463kts
21-Sep-16 01:09 54.820810 -63.444692 209 37705ft 462kts
21-Sep-16 01:10 54.709283 -63.552828 209 37699ft 463kts
21-Sep-16 01:11 54.596391 -63.661591 209 37701ft 463kts
21-Sep-16 01:12 54.483882 -63.769294 209 37703ft 463kts
21-Sep-16 01:13 54.370896 -63.876768 209 37706ft 464kts
21-Sep-16 01:14 54.257589 -63.983865 209 37709ft 463kts
21-Sep-16 01:15 54.145843 -64.088824 209 37711ft 463kts
21-Sep-16 01:16 54.032411 -64.194704 209 37713ft 464kts
21-Sep-16 01:17 53.918969 -64.299930 209 37715ft 463kts
21-Sep-16 01:18 53.805555 -64.404477 209 37708ft 463kts
21-Sep-16 01:19 53.692263 -64.508264 209 37708ft 463kts
21-Sep-16 01:20 53.580073 -64.610410 209 37708ft 463kts
21-Sep-16 01:21 53.466223 -64.713439 209 37710ft 463kts
21-Sep-16 01:22 53.352490 -64.815732 210 37711ft 463kts
21-Sep-16 01:23 53.238943 -64.917237 210 37713ft 463kts
21-Sep-16 01:24 53.125071 -65.018416 210 37716ft 462kts
21-Sep-16 01:25 53.012232 -65.118074 210 37718ft 462kts
21-Sep-16 01:26 52.898653 -65.217790 210 37732ft 462kts
21-Sep-16 01:27 52.784369 -65.317522 210 37740ft 462kts
21-Sep-16 01:28 52.671308 -65.415606 210 37743ft 461kts
21-Sep-16 01:29 52.557029 -65.514157 210 37747ft 461kts
21-Sep-16 01:30 52.444729 -65.610436 210 37750ft 461kts
21-Sep-16 01:31 52.330802 -65.707543 210 37753ft 460kts
21-Sep-16 01:32 52.216964 -65.804012 210 37757ft 460kts
21-Sep-16 01:33 52.103435 -65.899651 211 37760ft 460kts
21-Sep-16 01:34 51.989121 -65.995410 211 37765ft 461kts
21-Sep-16 01:35 51.875858 -66.089738 211 37771ft 461kts
21-Sep-16 01:36 51.761779 -66.184204 211 37778ft 461kts
21-Sep-16 01:37 51.647319 -66.278443 211 37788ft 460kts
21-Sep-16 01:38 51.533181 -66.371885 211 37805ft 459kts
21-Sep-16 01:39 51.419591 -66.464353 211 37815ft 458kts
21-Sep-16 01:40 51.307280 -66.555269 212 37824ft 456kts
21-Sep-16 01:41 51.193541 -66.646839 212 37833ft 454kts
21-Sep-16 01:42 51.081026 -66.736919 213 37840ft 452kts
21-Sep-16 01:43 50.968330 -66.826653 213 37846ft 452kts
21-Sep-16 01:44 50.855809 -66.915759 213 37855ft 450kts
21-Sep-16 01:45 50.763142 -66.988778 213 37858ft 450kts
21-Sep-16 01:46 50.632778 -67.090959 213 37862ft 448kts
21-Sep-16 01:47 50.539889 -67.163377 213 37864ft 447kts
21-Sep-16 01:48 50.427810 -67.250331 214 37867ft 447kts
21-Sep-16 01:49 50.298157 -67.350347 214 37871ft 445kts
21-Sep-16 01:50 50.206962 -67.420330 214 37879ft 443kts
21-Sep-16 01:51 50.095720 -67.505295 214 37897ft 442kts
21-Sep-16 01:52 49.984718 -67.589632 214 37908ft 442kts
21-Sep-16 01:53 49.875187 -67.672435 215 37921ft 439kts
21-Sep-16 01:54 49.764993 -67.755315 215 37932ft 439kts
21-Sep-16 01:55 49.656129 -67.836781 215 37941ft 439kts
21-Sep-16 01:56 49.546012 -67.918776 215 37948ft 438kts
21-Sep-16 01:57 49.435241 -68.000843 215 37954ft 438kts
21-Sep-16 01:59 49.216920 -68.161525 215 37959ft 433kts
21-Sep-16 02:00 49.111449 -68.242548 220 37960ft 423kts
21-Sep-16 02:01 49.013563 -68.343512 223 37962ft 421kts
21-Sep-16 02:02 48.916750 -68.442803 222 37969ft 420kts
21-Sep-16 02:03 48.819655 -68.541443 223 37978ft 418kts
21-Sep-16 02:04 48.722607 -68.640066 222 37983ft 417kts
21-Sep-16 02:05 48.627505 -68.735685 222 37984ft 416kts
21-Sep-16 02:06 48.531151 -68.832032 222 38000ft 415kts
21-Sep-16 02:07 48.434542 -68.928176 222 38006ft 415kts
21-Sep-16 02:08 48.337824 -69.023980 222 38013ft 415kts
21-Sep-16 02:09 48.240977 -69.119476 222 38024ft 415kts
21-Sep-16 02:10 48.145053 -69.213628 222 38032ft 415kts
21-Sep-16 02:11 48.048180 -69.308285 222 38039ft 414kts
21-Sep-16 02:12 47.951970 -69.402383 222 38044ft 412kts
21-Sep-16 02:13 47.855551 -69.495458 222 38049ft 412kts
21-Sep-16 02:14 47.760541 -69.590221 230 38062ft 400kts
21-Sep-16 02:15 47.689301 -69.711274 238 38067ft 392kts
21-Sep-16 02:16 47.620257 -69.837226 238 38072ft 392kts
21-Sep-16 02:17 47.550493 -69.962292 237 38077ft 393kts
21-Sep-16 02:18 47.480302 -70.086767 237 38083ft 394kts
21-Sep-16 02:19 47.410691 -70.211331 238 38087ft 393kts
21-Sep-16 02:20 47.342118 -70.336082 238 38091ft 395kts
21-Sep-16 02:21 47.272742 -70.461449 237 38098ft 396kts
21-Sep-16 02:22 47.202949 -70.587724 238 38102ft 395kts
21-Sep-16 02:23 47.133595 -70.713717 237 38105ft 395kts
21-Sep-16 02:24 47.063909 -70.838772 237 38109ft 396kts
21-Sep-16 02:25 46.995167 -70.961440 237 38113ft 396kts
21-Sep-16 02:26 46.925002 -71.086069 236 38115ft 397kts
21-Sep-16 02:27 46.854386 -71.210927 236 38119ft 398kts
21-Sep-16 02:28 46.828300 -71.256910 236 38119ft 398kts
21-Sep-16 02:29 46.828300 -71.256910 236 38119ft 398kts
21-Sep-16 02:30 46.828300 -71.256910 236 38119ft 398kts
21-Sep-16 02:31 46.828300 -71.256910 236 38119ft 398kts
21-Sep-16 02:32 46.828300 -71.256910 236 38119ft 398kts
21-Sep-16 02:33 46.828300 -71.256910 236 38119ft 398kts
21-Sep-16 02:34 46.828300 -71.256910 236 38119ft 398kts
21-Sep-16 02:35 46.828300 -71.256910 236 38119ft 398kts
21-Sep-16 02:36 46.828300 -71.256910 236 38119ft 398kts
21-Sep-16 02:37 46.828300 -71.256910 236 38119ft 398kts
21-Sep-16 02:38 46.828300 -71.256910 236 38119ft 398kts
21-Sep-16 02:39 46.828300 -71.256910 236 38119ft 398kts
21-Sep-16 02:40 46.828300 -71.256910 236 38119ft 398kts
21-Sep-16 02:41 46.828300 -71.256910 236 38119ft 398kts
21-Sep-16 02:42 46.828300 -71.256910 236 38119ft 398kts
21-Sep-16 02:43 46.828300 -71.256910 236 38119ft 398kts
21-Sep-16 02:44 46.828300 -71.256910 236 38119ft 398kts
21-Sep-16 02:45 46.828300 -71.256910 236 38119ft 398kts
21-Sep-16 02:46 46.828300 -71.256910 236 38119ft 398kts
21-Sep-16 02:47 46.828300 -71.256910 236 38119ft 398kts
21-Sep-16 02:48 46.828300 -71.256910 236 38119ft 398kts
21-Sep-16 02:49 46.828300 -71.256910 236 38119ft 398kts
21-Sep-16 02:50 46.828300 -71.256910 236 38119ft 398kts
21-Sep-16 02:51 46.828300 -71.256910 236 38119ft 398kts
21-Sep-16 02:52 46.828300 -71.256910 236 38119ft 398kts
21-Sep-16 02:53 46.828300 -71.256910 236 38119ft 398kts
21-Sep-16 02:54 46.828300 -71.256910 236 38119ft 398kts
21-Sep-16 02:55 46.828300 -71.256910 236 38119ft 398kts
21-Sep-16 02:56 46.828300 -71.256910 236 38119ft 398kts
21-Sep-16 02:57 46.828300 -71.256910 236 38119ft 398kts
21-Sep-16 02:58 46.828300 -71.256910 236 38119ft 398kts
21-Sep-16 02:59 46.828300 -71.256910 236 38119ft 398kts
21-Sep-16 03:00 46.828300 -71.256910 236 38119ft 398kts
21-Sep-16 03:01 46.790799 -71.322877 236 38119ft 398kts
21-Sep-16 03:02 46.720413 -71.447178 236 37847ft 390kts
21-Sep-16 03:03 46.651319 -71.567349 236 35569ft 386kts
21-Sep-16 03:04 46.582034 -71.687338 236 33216ft 385kts
21-Sep-16 03:05 46.507348 -71.795648 229 31327ft 382kts
21-Sep-16 03:06 46.427547 -71.895908 229 29433ft 382kts
21-Sep-16 03:07 46.346816 -72.000171 229 27360ft 384kts
21-Sep-16 03:08 46.268380 -72.101330 229 25368ft 372kts
21-Sep-16 03:09 46.191707 -72.199037 229 23431ft 359kts
21-Sep-16 03:10 46.129137 -72.278617 229 21854ft 350kts
21-Sep-16 03:11 46.129137 -72.278617 229 21854ft 350kts
21-Sep-16 03:12 46.129137 -72.278617 229 21854ft 350kts
21-Sep-16 03:13 46.129137 -72.278617 229 21854ft 350kts
21-Sep-16 03:14 46.129137 -72.278617 229 21854ft 350kts
21-Sep-16 03:15 46.129137 -72.278617 229 21854ft 350kts
21-Sep-16 03:16 46.129137 -72.278617 229 21854ft 350kts
21-Sep-16 03:17 46.129137 -72.278617 229 21854ft 350kts
21-Sep-16 03:18 46.129137 -72.278617 229 21854ft 350kts
21-Sep-16 03:19 46.129137 -72.278617 229 21854ft 350kts
21-Sep-16 03:20 46.129137 -72.278617 229 21854ft 350kts
21-Sep-16 03:21 46.129137 -72.278617 229 21854ft 350kts
21-Sep-16 03:22 46.129137 -72.278617 229 21854ft 350kts
21-Sep-16 03:23 46.129137 -72.278617 229 21854ft 350kts
21-Sep-16 03:24 46.129137 -72.278617 229 21854ft 350kts
21-Sep-16 03:25 46.129137 -72.278617 229 21854ft 350kts
21-Sep-16 03:26 46.129137 -72.278617 229 21854ft 350kts
21-Sep-16 03:27 46.129137 -72.278617 229 21854ft 350kts
21-Sep-16 03:28 46.129137 -72.278617 229 21854ft 350kts
21-Sep-16 03:29 46.129137 -72.278617 229 21854ft 350kts
21-Sep-16 03:30 46.129137 -72.278617 229 21854ft 350kts
21-Sep-16 03:31 46.129137 -72.278617 229 21854ft 350kts
21-Sep-16 03:32 46.129137 -72.278617 229 21854ft 350kts
21-Sep-16 03:33 46.129137 -72.278617 229 21854ft 350kts
21-Sep-16 03:34 46.129137 -72.278617 229 21854ft 350kts
21-Sep-16 03:35 46.129137 -72.278617 229 21854ft 350kts
21-Sep-16 03:36 46.129137 -72.278617 229 21854ft 350kts
21-Sep-16 03:37 46.129137 -72.278617 229 21854ft 350kts
21-Sep-16 03:38 46.129137 -72.278617 229 21854ft 350kts
21-Sep-16 03:39 46.129137 -72.278617 229 21854ft 350kts
21-Sep-16 03:40 46.129137 -72.278617 229 21854ft 350kts
21-Sep-16 03:41 46.129137 -72.278617 229 21854ft 350kts
21-Sep-16 03:42 46.129137 -72.278617 229 21854ft 350kts
21-Sep-16 03:43 46.129137 -72.278617 229 21854ft 350kts
21-Sep-16 03:44 46.129137 -72.278617 229 21854ft 350kts
21-Sep-16 03:45 46.129137 -72.278617 229 21854ft 350kts
21-Sep-16 03:46 46.129137 -72.278617 229 21854ft 350kts
21-Sep-16 03:47 46.129137 -72.278617 229 21854ft 350kts
21-Sep-16 03:48 46.129137 -72.278617 229 21854ft 350kts
21-Sep-16 03:49 46.129137 -72.278617 229 21854ft 350kts
21-Sep-16 03:50 46.129137 -72.278617 229 21854ft 350kts
21-Sep-16 03:51 46.129137 -72.278617 229 21854ft 350kts
21-Sep-16 03:52 46.062630 -72.362848 229 20160ft 340kts
21-Sep-16 03:53 45.992191 -72.451734 229 18311ft 332kts
21-Sep-16 03:54 45.923328 -72.539569 228 16227ft 331kts
21-Sep-16 03:55 45.854484 -72.625831 228 14257ft 327kts
21-Sep-16 03:56 45.786742 -72.710472 228 12740ft 311kts
21-Sep-16 03:57 45.744292 -72.799054 256 12030ft 247kts
21-Sep-16 03:58 45.732576 -72.891242 264 10572ft 235kts
21-Sep-16 03:59 45.723005 -72.985106 264 8852ft 241kts
21-Sep-16 04:00 45.713238 -73.077933 264 7425ft 237kts
21-Sep-16 04:01 45.701586 -73.170101 260 6015ft 234kts
21-Sep-16 04:02 45.685866 -73.260194 259 4654ft 230kts
21-Sep-16 04:03 45.670721 -73.347810 259 3330ft 226kts
21-Sep-16 04:04 45.656713 -73.428995 260 2998ft 182kts
21-Sep-16 04:05 45.646185 -73.490019 260 3037ft 153kts
21-Sep-16 04:06 45.629848 -73.543022 236 3018ft 142kts
21-Sep-16 04:07 45.602055 -73.580286 232 3010ft 134kts
21-Sep-16 04:08 45.574051 -73.617054 229 2541ft 136kts
21-Sep-16 04:09 45.546480 -73.653210 226 1816ft 133kts
21-Sep-16 04:10 45.519445 -73.688629 222 1115ft 132kts
21-Sep-16 04:11 45.497051 -73.717941 222 535ft 130kts
21-Sep-16 04:12 45.473302 -73.749003 222 131ft 26kts
21-Sep-16 04:13 45.466646 -73.750271 179 131ft 35kts
21-Sep-16 04:14 45.461376 -73.752043 266 131ft 20kts
21-Sep-16 04:15 45.459570 -73.753809 208 131ft 0kts
21-Sep-16 04:16 45.459570 -73.753809 208 131ft 0kts

Navigation Log

Ident Type
Flight plan parsing failed, navigation log unavailable